sensor_id;sensor_type;location;lat;lon;timestamp;P1;durP1;ratioP1;P2;durP2;ratioP2
73154;SDS011;61364;52.418;7.382;2022-10-13T00:01:21;9.91;;;9.91;;
73154;SDS011;61364;52.418;7.382;2022-10-13T00:03:48;9.38;;;9.38;;
73154;SDS011;61364;52.418;7.382;2022-10-13T00:06:15;9.71;;;9.71;;
73154;SDS011;61364;52.418;7.382;2022-10-13T00:08:42;9.94;;;9.94;;
73154;SDS011;61364;52.418;7.382;2022-10-13T00:11:29;9.24;;;9.24;;
73154;SDS011;61364;52.418;7.382;2022-10-13T00:13:59;9.72;;;9.72;;
73154;SDS011;61364;52.418;7.382;2022-10-13T00:16:26;9.70;;;9.70;;
73154;SDS011;61364;52.418;7.382;2022-10-13T00:18:53;9.48;;;9.48;;
73154;SDS011;61364;52.418;7.382;2022-10-13T00:21:19;10.24;;;10.24;;
73154;SDS011;61364;52.418;7.382;2022-10-13T00:23:46;10.16;;;10.16;;
73154;SDS011;61364;52.418;7.382;2022-10-13T00:26:13;9.95;;;9.94;;
73154;SDS011;61364;52.418;7.382;2022-10-13T00:28:40;10.14;;;10.14;;
73154;SDS011;61364;52.418;7.382;2022-10-13T00:31:23;9.68;;;9.68;;
73154;SDS011;61364;52.418;7.382;2022-10-13T00:33:49;9.39;;;9.39;;
73154;SDS011;61364;52.418;7.382;2022-10-13T00:36:15;9.26;;;9.26;;
73154;SDS011;61364;52.418;7.382;2022-10-13T00:38:40;9.74;;;9.74;;
73154;SDS011;61364;52.418;7.382;2022-10-13T00:41:06;10.00;;;10.00;;
73154;SDS011;61364;52.418;7.382;2022-10-13T00:43:53;9.95;;;9.95;;
73154;SDS011;61364;52.418;7.382;2022-10-13T00:46:20;9.94;;;9.94;;
73154;SDS011;61364;52.418;7.382;2022-10-13T00:48:46;9.73;;;9.73;;
73154;SDS011;61364;52.418;7.382;2022-10-13T00:51:13;9.63;;;9.63;;
73154;SDS011;61364;52.418;7.382;2022-10-13T00:53:40;10.84;;;10.84;;
73154;SDS011;61364;52.418;7.382;2022-10-13T00:56:08;11.02;;;11.02;;
73154;SDS011;61364;52.418;7.382;2022-10-13T00:58:35;12.25;;;12.25;;
73154;SDS011;61364;52.418;7.382;2022-10-13T01:01:03;13.10;;;13.10;;
73154;SDS011;61364;52.418;7.382;2022-10-13T01:03:30;14.03;;;14.03;;
73154;SDS011;61364;52.418;7.382;2022-10-13T01:05:57;14.08;;;14.08;;
73154;SDS011;61364;52.418;7.382;2022-10-13T01:08:23;14.09;;;14.09;;
73154;SDS011;61364;52.418;7.382;2022-10-13T01:13:33;13.61;;;13.61;;
73154;SDS011;61364;52.418;7.382;2022-10-13T01:18:51;12.65;;;12.65;;
73154;SDS011;61364;52.418;7.382;2022-10-13T01:21:35;12.74;;;12.74;;
73154;SDS011;61364;52.418;7.382;2022-10-13T01:29:23;11.69;;;11.69;;
73154;SDS011;61364;52.418;7.382;2022-10-13T01:32:06;12.27;;;12.27;;
73154;SDS011;61364;52.418;7.382;2022-10-13T01:34:42;12.23;;;12.23;;
73154;SDS011;61364;52.418;7.382;2022-10-13T01:39:39;11.96;;;11.96;;
73154;SDS011;61364;52.418;7.382;2022-10-13T01:42:13;12.40;;;12.40;;
73154;SDS011;61364;52.418;7.382;2022-10-13T01:44:44;11.89;;;11.89;;
73154;SDS011;61364;52.418;7.382;2022-10-13T01:47:13;11.64;;;11.64;;
73154;SDS011;61364;52.418;7.382;2022-10-13T01:49:40;11.58;;;11.58;;
73154;SDS011;61364;52.418;7.382;2022-10-13T01:52:11;10.97;;;10.97;;
73154;SDS011;61364;52.418;7.382;2022-10-13T01:54:39;11.21;;;11.21;;
73154;SDS011;61364;52.418;7.382;2022-10-13T01:57:25;11.44;;;11.44;;
73154;SDS011;61364;52.418;7.382;2022-10-13T01:59:50;11.51;;;11.51;;
73154;SDS011;61364;52.418;7.382;2022-10-13T02:02:20;11.89;;;11.89;;
73154;SDS011;61364;52.418;7.382;2022-10-13T02:05:08;11.42;;;11.42;;
73154;SDS011;61364;52.418;7.382;2022-10-13T02:10:16;11.52;;;11.52;;
73154;SDS011;61364;52.418;7.382;2022-10-13T02:12:54;11.39;;;11.39;;
73154;SDS011;61364;52.418;7.382;2022-10-13T02:15:23;10.96;;;10.96;;
73154;SDS011;61364;52.418;7.382;2022-10-13T02:17:53;11.58;;;11.58;;
73154;SDS011;61364;52.418;7.382;2022-10-13T02:20:19;11.30;;;11.30;;
73154;SDS011;61364;52.418;7.382;2022-10-13T02:22:46;12.06;;;12.06;;
73154;SDS011;61364;52.418;7.382;2022-10-13T02:25:17;11.90;;;11.90;;
73154;SDS011;61364;52.418;7.382;2022-10-13T02:27:42;11.67;;;11.67;;
73154;SDS011;61364;52.418;7.382;2022-10-13T02:30:09;12.06;;;12.06;;
73154;SDS011;61364;52.418;7.382;2022-10-13T02:32:34;12.07;;;12.07;;
73154;SDS011;61364;52.418;7.382;2022-10-13T02:35:00;12.20;;;12.20;;
73154;SDS011;61364;52.418;7.382;2022-10-13T02:37:26;12.05;;;12.05;;
73154;SDS011;61364;52.418;7.382;2022-10-13T02:39:51;11.88;;;11.88;;
73154;SDS011;61364;52.418;7.382;2022-10-13T02:42:17;11.98;;;11.98;;
73154;SDS011;61364;52.418;7.382;2022-10-13T02:44:42;12.25;;;12.25;;
73154;SDS011;61364;52.418;7.382;2022-10-13T02:47:08;11.76;;;11.76;;
73154;SDS011;61364;52.418;7.382;2022-10-13T02:49:33;12.34;;;12.34;;
73154;SDS011;61364;52.418;7.382;2022-10-13T02:51:59;12.38;;;12.38;;
73154;SDS011;61364;52.418;7.382;2022-10-13T02:54:24;12.37;;;12.37;;
73154;SDS011;61364;52.418;7.382;2022-10-13T02:56:50;12.63;;;12.63;;
73154;SDS011;61364;52.418;7.382;2022-10-13T02:59:15;12.46;;;12.46;;
73154;SDS011;61364;52.418;7.382;2022-10-13T03:01:41;12.88;;;12.88;;
73154;SDS011;61364;52.418;7.382;2022-10-13T03:04:08;12.91;;;12.91;;
73154;SDS011;61364;52.418;7.382;2022-10-13T03:06:34;12.78;;;12.77;;
73154;SDS011;61364;52.418;7.382;2022-10-13T03:09:00;12.91;;;12.91;;
73154;SDS011;61364;52.418;7.382;2022-10-13T03:11:25;13.42;;;13.42;;
73154;SDS011;61364;52.418;7.382;2022-10-13T03:13:51;12.91;;;12.91;;
73154;SDS011;61364;52.418;7.382;2022-10-13T03:16:17;12.85;;;12.85;;
73154;SDS011;61364;52.418;7.382;2022-10-13T03:18:42;12.98;;;12.98;;
73154;SDS011;61364;52.418;7.382;2022-10-13T03:21:08;12.73;;;12.73;;
73154;SDS011;61364;52.418;7.382;2022-10-13T03:23:34;12.97;;;12.95;;
73154;SDS011;61364;52.418;7.382;2022-10-13T03:26:00;12.98;;;12.98;;
73154;SDS011;61364;52.418;7.382;2022-10-13T03:28:26;12.96;;;12.96;;
73154;SDS011;61364;52.418;7.382;2022-10-13T03:31:02;12.90;;;12.90;;
73154;SDS011;61364;52.418;7.382;2022-10-13T03:33:28;13.38;;;13.38;;
73154;SDS011;61364;52.418;7.382;2022-10-13T03:35:56;13.16;;;13.16;;
73154;SDS011;61364;52.418;7.382;2022-10-13T03:38:22;12.85;;;12.85;;
73154;SDS011;61364;52.418;7.382;2022-10-13T03:40:48;12.85;;;12.85;;
73154;SDS011;61364;52.418;7.382;2022-10-13T03:43:13;12.84;;;12.84;;
73154;SDS011;61364;52.418;7.382;2022-10-13T03:45:39;13.10;;;13.10;;
73154;SDS011;61364;52.418;7.382;2022-10-13T03:48:05;13.45;;;13.45;;
73154;SDS011;61364;52.418;7.382;2022-10-13T03:50:30;13.35;;;13.35;;
73154;SDS011;61364;52.418;7.382;2022-10-13T03:52:55;13.57;;;13.57;;
73154;SDS011;61364;52.418;7.382;2022-10-13T03:55:21;13.77;;;13.72;;
73154;SDS011;61364;52.418;7.382;2022-10-13T03:57:46;13.91;;;13.91;;
73154;SDS011;61364;52.418;7.382;2022-10-13T04:00:12;14.09;;;14.03;;
73154;SDS011;61364;52.418;7.382;2022-10-13T04:02:38;13.38;;;13.38;;
73154;SDS011;61364;52.418;7.382;2022-10-13T04:05:04;14.07;;;14.07;;
73154;SDS011;61364;52.418;7.382;2022-10-13T04:07:29;13.33;;;13.24;;
73154;SDS011;61364;52.418;7.382;2022-10-13T04:09:55;13.06;;;13.06;;
73154;SDS011;61364;52.418;7.382;2022-10-13T04:12:20;13.15;;;13.15;;
73154;SDS011;61364;52.418;7.382;2022-10-13T04:14:46;13.64;;;13.64;;
73154;SDS011;61364;52.418;7.382;2022-10-13T04:17:11;13.63;;;13.62;;
73154;SDS011;61364;52.418;7.382;2022-10-13T04:19:37;13.73;;;13.65;;
73154;SDS011;61364;52.418;7.382;2022-10-13T04:22:03;14.13;;;13.90;;
73154;SDS011;61364;52.418;7.382;2022-10-13T04:24:28;13.26;;;13.13;;
73154;SDS011;61364;52.418;7.382;2022-10-13T04:26:54;13.47;;;13.47;;
73154;SDS011;61364;52.418;7.382;2022-10-13T04:29:19;13.11;;;13.11;;
73154;SDS011;61364;52.418;7.382;2022-10-13T04:31:45;13.69;;;13.69;;
73154;SDS011;61364;52.418;7.382;2022-10-13T04:34:11;13.73;;;13.69;;
73154;SDS011;61364;52.418;7.382;2022-10-13T04:36:37;14.32;;;14.22;;
73154;SDS011;61364;52.418;7.382;2022-10-13T04:39:03;13.80;;;13.65;;
73154;SDS011;61364;52.418;7.382;2022-10-13T04:41:29;13.56;;;13.55;;
73154;SDS011;61364;52.418;7.382;2022-10-13T04:43:54;13.81;;;13.81;;
73154;SDS011;61364;52.418;7.382;2022-10-13T04:46:22;13.50;;;13.50;;
73154;SDS011;61364;52.418;7.382;2022-10-13T04:48:49;13.92;;;13.92;;
73154;SDS011;61364;52.418;7.382;2022-10-13T04:51:16;14.65;;;14.62;;
73154;SDS011;61364;52.418;7.382;2022-10-13T04:53:42;14.25;;;14.23;;
73154;SDS011;61364;52.418;7.382;2022-10-13T04:56:09;14.92;;;14.92;;
73154;SDS011;61364;52.418;7.382;2022-10-13T04:58:35;15.03;;;15.02;;
73154;SDS011;61364;52.418;7.382;2022-10-13T05:01:02;14.53;;;14.52;;
73154;SDS011;61364;52.418;7.382;2022-10-13T05:03:28;15.02;;;15.02;;
73154;SDS011;61364;52.418;7.382;2022-10-13T05:05:53;14.54;;;14.54;;
73154;SDS011;61364;52.418;7.382;2022-10-13T05:08:19;14.26;;;14.26;;
73154;SDS011;61364;52.418;7.382;2022-10-13T05:13:37;13.80;;;13.80;;
73154;SDS011;61364;52.418;7.382;2022-10-13T05:16:09;14.48;;;14.45;;
73154;SDS011;61364;52.418;7.382;2022-10-13T05:18:36;14.42;;;14.40;;
73154;SDS011;61364;52.418;7.382;2022-10-13T05:21:09;14.55;;;14.55;;
73154;SDS011;61364;52.418;7.382;2022-10-13T05:23:36;14.44;;;14.37;;
73154;SDS011;61364;52.418;7.382;2022-10-13T05:26:03;14.51;;;14.37;;
73154;SDS011;61364;52.418;7.382;2022-10-13T05:28:29;14.62;;;14.50;;
73154;SDS011;61364;52.418;7.382;2022-10-13T05:30:55;13.97;;;13.95;;
73154;SDS011;61364;52.418;7.382;2022-10-13T05:33:20;14.41;;;14.41;;
73154;SDS011;61364;52.418;7.382;2022-10-13T05:35:46;15.37;;;15.37;;
73154;SDS011;61364;52.418;7.382;2022-10-13T05:38:11;15.97;;;15.97;;
73154;SDS011;61364;52.418;7.382;2022-10-13T05:40:37;16.54;;;16.54;;
73154;SDS011;61364;52.418;7.382;2022-10-13T05:43:02;16.56;;;16.56;;
73154;SDS011;61364;52.418;7.382;2022-10-13T05:45:28;15.71;;;15.71;;
73154;SDS011;61364;52.418;7.382;2022-10-13T05:47:57;16.60;;;16.60;;
73154;SDS011;61364;52.418;7.382;2022-10-13T05:50:22;16.70;;;16.70;;
73154;SDS011;61364;52.418;7.382;2022-10-13T05:52:48;16.99;;;16.99;;
73154;SDS011;61364;52.418;7.382;2022-10-13T05:55:15;17.05;;;17.05;;
73154;SDS011;61364;52.418;7.382;2022-10-13T05:57:44;17.50;;;17.48;;
73154;SDS011;61364;52.418;7.382;2022-10-13T06:00:13;17.55;;;17.55;;
73154;SDS011;61364;52.418;7.382;2022-10-13T06:02:45;17.13;;;17.13;;
73154;SDS011;61364;52.418;7.382;2022-10-13T06:05:15;17.39;;;17.39;;
73154;SDS011;61364;52.418;7.382;2022-10-13T06:07:43;18.08;;;18.08;;
73154;SDS011;61364;52.418;7.382;2022-10-13T06:10:10;17.36;;;17.36;;
73154;SDS011;61364;52.418;7.382;2022-10-13T06:12:37;17.40;;;17.36;;
73154;SDS011;61364;52.418;7.382;2022-10-13T06:15:03;17.25;;;17.22;;
73154;SDS011;61364;52.418;7.382;2022-10-13T06:17:29;17.05;;;16.94;;
73154;SDS011;61364;52.418;7.382;2022-10-13T06:19:54;16.48;;;16.46;;
73154;SDS011;61364;52.418;7.382;2022-10-13T06:22:20;16.59;;;16.59;;
73154;SDS011;61364;52.418;7.382;2022-10-13T06:24:46;16.38;;;16.36;;
73154;SDS011;61364;52.418;7.382;2022-10-13T06:27:11;17.65;;;17.62;;
73154;SDS011;61364;52.418;7.382;2022-10-13T06:29:37;17.81;;;17.81;;
73154;SDS011;61364;52.418;7.382;2022-10-13T06:32:03;17.58;;;17.58;;
73154;SDS011;61364;52.418;7.382;2022-10-13T06:34:29;18.95;;;18.95;;
73154;SDS011;61364;52.418;7.382;2022-10-13T06:36:54;19.19;;;19.19;;
73154;SDS011;61364;52.418;7.382;2022-10-13T06:39:20;19.18;;;19.14;;
73154;SDS011;61364;52.418;7.382;2022-10-13T06:41:45;19.16;;;19.15;;
73154;SDS011;61364;52.418;7.382;2022-10-13T06:44:11;19.26;;;19.26;;
73154;SDS011;61364;52.418;7.382;2022-10-13T06:46:36;19.93;;;19.93;;
73154;SDS011;61364;52.418;7.382;2022-10-13T06:49:02;20.86;;;20.86;;
73154;SDS011;61364;52.418;7.382;2022-10-13T06:51:27;19.94;;;19.94;;
73154;SDS011;61364;52.418;7.382;2022-10-13T06:53:54;19.39;;;19.39;;
73154;SDS011;61364;52.418;7.382;2022-10-13T06:56:19;19.22;;;19.22;;
73154;SDS011;61364;52.418;7.382;2022-10-13T06:58:45;19.16;;;19.16;;
73154;SDS011;61364;52.418;7.382;2022-10-13T07:01:11;18.50;;;18.50;;
73154;SDS011;61364;52.418;7.382;2022-10-13T07:03:37;18.58;;;18.58;;
73154;SDS011;61364;52.418;7.382;2022-10-13T07:06:03;18.08;;;18.08;;
73154;SDS011;61364;52.418;7.382;2022-10-13T07:08:30;17.86;;;17.86;;
73154;SDS011;61364;52.418;7.382;2022-10-13T07:10:56;17.27;;;17.27;;
73154;SDS011;61364;52.418;7.382;2022-10-13T07:13:22;17.26;;;17.26;;
73154;SDS011;61364;52.418;7.382;2022-10-13T07:15:47;17.09;;;17.09;;
73154;SDS011;61364;52.418;7.382;2022-10-13T07:18:12;16.68;;;16.68;;
73154;SDS011;61364;52.418;7.382;2022-10-13T07:20:38;16.26;;;16.26;;
73154;SDS011;61364;52.418;7.382;2022-10-13T07:23:03;17.12;;;17.12;;
73154;SDS011;61364;52.418;7.382;2022-10-13T07:25:29;16.90;;;16.86;;
73154;SDS011;61364;52.418;7.382;2022-10-13T07:27:54;17.53;;;17.46;;
73154;SDS011;61364;52.418;7.382;2022-10-13T07:30:20;19.41;;;19.35;;
73154;SDS011;61364;52.418;7.382;2022-10-13T07:32:47;19.00;;;19.00;;
73154;SDS011;61364;52.418;7.382;2022-10-13T07:35:13;18.35;;;18.35;;
73154;SDS011;61364;52.418;7.382;2022-10-13T07:37:38;17.79;;;17.79;;
73154;SDS011;61364;52.418;7.382;2022-10-13T07:40:04;17.40;;;17.40;;
73154;SDS011;61364;52.418;7.382;2022-10-13T07:42:30;16.67;;;16.65;;
73154;SDS011;61364;52.418;7.382;2022-10-13T07:44:56;17.22;;;17.22;;
73154;SDS011;61364;52.418;7.382;2022-10-13T07:47:22;17.80;;;17.80;;
73154;SDS011;61364;52.418;7.382;2022-10-13T07:49:47;17.60;;;17.53;;
73154;SDS011;61364;52.418;7.382;2022-10-13T07:52:13;17.51;;;17.47;;
73154;SDS011;61364;52.418;7.382;2022-10-13T07:54:38;17.79;;;17.79;;
73154;SDS011;61364;52.418;7.382;2022-10-13T07:57:03;17.80;;;17.80;;
73154;SDS011;61364;52.418;7.382;2022-10-13T07:59:32;18.63;;;18.55;;
73154;SDS011;61364;52.418;7.382;2022-10-13T08:01:58;19.29;;;19.27;;
73154;SDS011;61364;52.418;7.382;2022-10-13T08:04:31;18.58;;;18.58;;
73154;SDS011;61364;52.418;7.382;2022-10-13T08:06:57;18.74;;;18.70;;
73154;SDS011;61364;52.418;7.382;2022-10-13T08:09:23;17.97;;;17.97;;
73154;SDS011;61364;52.418;7.382;2022-10-13T08:11:49;18.71;;;18.71;;
73154;SDS011;61364;52.418;7.382;2022-10-13T08:14:15;17.92;;;17.91;;
73154;SDS011;61364;52.418;7.382;2022-10-13T08:16:41;17.62;;;17.62;;
73154;SDS011;61364;52.418;7.382;2022-10-13T08:19:13;17.46;;;17.46;;
73154;SDS011;61364;52.418;7.382;2022-10-13T08:21:39;17.12;;;17.12;;
73154;SDS011;61364;52.418;7.382;2022-10-13T08:24:08;17.41;;;17.41;;
73154;SDS011;61364;52.418;7.382;2022-10-13T08:26:35;18.25;;;18.25;;
73154;SDS011;61364;52.418;7.382;2022-10-13T08:29:00;20.28;;;20.28;;
73154;SDS011;61364;52.418;7.382;2022-10-13T08:31:26;20.48;;;20.47;;
73154;SDS011;61364;52.418;7.382;2022-10-13T08:33:52;22.77;;;22.77;;
73154;SDS011;61364;52.418;7.382;2022-10-13T08:36:17;21.65;;;21.65;;
73154;SDS011;61364;52.418;7.382;2022-10-13T08:38:43;18.30;;;18.30;;
73154;SDS011;61364;52.418;7.382;2022-10-13T08:41:12;16.99;;;16.94;;
73154;SDS011;61364;52.418;7.382;2022-10-13T08:43:40;20.16;;;20.15;;
73154;SDS011;61364;52.418;7.382;2022-10-13T08:46:09;20.00;;;19.98;;
73154;SDS011;61364;52.418;7.382;2022-10-13T08:48:36;18.28;;;18.19;;
73154;SDS011;61364;52.418;7.382;2022-10-13T08:51:06;17.87;;;17.87;;
73154;SDS011;61364;52.418;7.382;2022-10-13T08:53:42;20.19;;;20.19;;
73154;SDS011;61364;52.418;7.382;2022-10-13T08:56:13;17.69;;;17.68;;
73154;SDS011;61364;52.418;7.382;2022-10-13T08:58:42;16.59;;;16.53;;
73154;SDS011;61364;52.418;7.382;2022-10-13T09:03:47;16.03;;;15.95;;
73154;SDS011;61364;52.418;7.382;2022-10-13T09:06:26;15.96;;;15.96;;
73154;SDS011;61364;52.418;7.382;2022-10-13T09:08:57;16.22;;;16.19;;
73154;SDS011;61364;52.418;7.382;2022-10-13T09:11:25;15.93;;;15.85;;
73154;SDS011;61364;52.418;7.382;2022-10-13T09:13:58;15.70;;;15.69;;
73154;SDS011;61364;52.418;7.382;2022-10-13T09:16:37;16.40;;;16.20;;
73154;SDS011;61364;52.418;7.382;2022-10-13T09:19:25;16.04;;;16.03;;
73154;SDS011;61364;52.418;7.382;2022-10-13T09:21:50;16.44;;;16.39;;
73154;SDS011;61364;52.418;7.382;2022-10-13T09:24:18;15.80;;;15.80;;
73154;SDS011;61364;52.418;7.382;2022-10-13T09:26:46;16.27;;;16.27;;
73154;SDS011;61364;52.418;7.382;2022-10-13T09:29:21;16.00;;;16.00;;
73154;SDS011;61364;52.418;7.382;2022-10-13T09:31:48;14.68;;;14.67;;
73154;SDS011;61364;52.418;7.382;2022-10-13T09:34:22;14.97;;;14.97;;
73154;SDS011;61364;52.418;7.382;2022-10-13T09:36:59;14.93;;;14.92;;
73154;SDS011;61364;52.418;7.382;2022-10-13T09:39:27;15.72;;;15.71;;
73154;SDS011;61364;52.418;7.382;2022-10-13T09:44:37;20.84;;;20.83;;
73154;SDS011;61364;52.418;7.382;2022-10-13T09:47:03;20.76;;;20.75;;
73154;SDS011;61364;52.418;7.382;2022-10-13T09:52:05;15.61;;;15.61;;
73154;SDS011;61364;52.418;7.382;2022-10-13T09:57:11;14.72;;;14.71;;
73154;SDS011;61364;52.418;7.382;2022-10-13T09:59:45;12.83;;;12.83;;
73154;SDS011;61364;52.418;7.382;2022-10-13T10:02:15;13.95;;;13.95;;
73154;SDS011;61364;52.418;7.382;2022-10-13T10:04:44;15.25;;;15.25;;
73154;SDS011;61364;52.418;7.382;2022-10-13T10:07:11;16.26;;;16.26;;
73154;SDS011;61364;52.418;7.382;2022-10-13T10:09:49;16.76;;;16.74;;
73154;SDS011;61364;52.418;7.382;2022-10-13T10:12:19;17.07;;;17.07;;
73154;SDS011;61364;52.418;7.382;2022-10-13T10:14:47;16.43;;;16.43;;
73154;SDS011;61364;52.418;7.382;2022-10-13T10:25:08;13.11;;;13.11;;
73154;SDS011;61364;52.418;7.382;2022-10-13T10:27:43;12.90;;;12.90;;
73154;SDS011;61364;52.418;7.382;2022-10-13T10:30:14;13.18;;;13.17;;
73154;SDS011;61364;52.418;7.382;2022-10-13T10:38:14;14.85;;;14.85;;
73154;SDS011;61364;52.418;7.382;2022-10-13T10:40:50;13.47;;;13.47;;
73154;SDS011;61364;52.418;7.382;2022-10-13T10:45:56;14.16;;;14.16;;
73154;SDS011;61364;52.418;7.382;2022-10-13T10:48:24;14.23;;;14.23;;
73154;SDS011;61364;52.418;7.382;2022-10-13T10:50:53;13.87;;;13.85;;
73154;SDS011;61364;52.418;7.382;2022-10-13T10:53:43;15.33;;;15.31;;
73154;SDS011;61364;52.418;7.382;2022-10-13T11:03:39;13.00;;;12.97;;
73154;SDS011;61364;52.418;7.382;2022-10-13T11:08:43;12.85;;;12.81;;
73154;SDS011;61364;52.418;7.382;2022-10-13T11:16:29;11.57;;;11.57;;
73154;SDS011;61364;52.418;7.382;2022-10-13T11:37:48;11.97;;;11.97;;
73154;SDS011;61364;52.418;7.382;2022-10-13T11:40:26;11.66;;;11.62;;
73154;SDS011;61364;52.418;7.382;2022-10-13T11:45:37;11.21;;;11.20;;
73154;SDS011;61364;52.418;7.382;2022-10-13T11:53:19;10.48;;;10.48;;
73154;SDS011;61364;52.418;7.382;2022-10-13T11:55:48;10.58;;;10.56;;
73154;SDS011;61364;52.418;7.382;2022-10-13T11:58:17;9.99;;;9.98;;
73154;SDS011;61364;52.418;7.382;2022-10-13T12:00:50;10.87;;;10.87;;
73154;SDS011;61364;52.418;7.382;2022-10-13T12:03:20;10.31;;;10.29;;
73154;SDS011;61364;52.418;7.382;2022-10-13T12:05:47;10.70;;;10.70;;
73154;SDS011;61364;52.418;7.382;2022-10-13T12:08:14;10.09;;;10.09;;
73154;SDS011;61364;52.418;7.382;2022-10-13T12:10:40;9.85;;;9.81;;
73154;SDS011;61364;52.418;7.382;2022-10-13T12:13:05;9.82;;;9.80;;
73154;SDS011;61364;52.418;7.382;2022-10-13T12:15:33;10.37;;;10.36;;
73154;SDS011;61364;52.418;7.382;2022-10-13T12:18:01;9.59;;;9.58;;
73154;SDS011;61364;52.418;7.382;2022-10-13T12:20:30;9.84;;;9.83;;
73154;SDS011;61364;52.418;7.382;2022-10-13T12:22:57;10.48;;;10.47;;
73154;SDS011;61364;52.418;7.382;2022-10-13T12:25:24;10.50;;;10.50;;
73154;SDS011;61364;52.418;7.382;2022-10-13T12:27:53;10.53;;;10.53;;
73154;SDS011;61364;52.418;7.382;2022-10-13T12:30:24;10.45;;;10.45;;
73154;SDS011;61364;52.418;7.382;2022-10-13T12:32:51;9.86;;;9.86;;
73154;SDS011;61364;52.418;7.382;2022-10-13T12:35:32;9.81;;;9.81;;
73154;SDS011;61364;52.418;7.382;2022-10-13T12:38:03;9.15;;;9.15;;
73154;SDS011;61364;52.418;7.382;2022-10-13T12:40:31;9.38;;;9.37;;
73154;SDS011;61364;52.418;7.382;2022-10-13T12:42:58;9.59;;;9.59;;
73154;SDS011;61364;52.418;7.382;2022-10-13T12:45:31;9.73;;;9.73;;
73154;SDS011;61364;52.418;7.382;2022-10-13T12:47:58;9.76;;;9.76;;
73154;SDS011;61364;52.418;7.382;2022-10-13T12:55:34;9.41;;;9.40;;
73154;SDS011;61364;52.418;7.382;2022-10-13T12:58:02;9.89;;;9.89;;
73154;SDS011;61364;52.418;7.382;2022-10-13T13:00:28;11.87;;;11.86;;
73154;SDS011;61364;52.418;7.382;2022-10-13T13:02:58;13.08;;;13.08;;
73154;SDS011;61364;52.418;7.382;2022-10-13T13:05:31;11.39;;;11.39;;
73154;SDS011;61364;52.418;7.382;2022-10-13T13:07:59;10.82;;;10.82;;
73154;SDS011;61364;52.418;7.382;2022-10-13T13:10:25;11.12;;;11.12;;
73154;SDS011;61364;52.418;7.382;2022-10-13T13:12:51;11.05;;;11.01;;
73154;SDS011;61364;52.418;7.382;2022-10-13T13:15:32;11.80;;;11.79;;
73154;SDS011;61364;52.418;7.382;2022-10-13T13:20:43;10.03;;;10.03;;
73154;SDS011;61364;52.418;7.382;2022-10-13T13:23:08;9.70;;;9.69;;
73154;SDS011;61364;52.418;7.382;2022-10-13T13:25:33;10.61;;;10.61;;
73154;SDS011;61364;52.418;7.382;2022-10-13T13:28:02;10.78;;;10.78;;
73154;SDS011;61364;52.418;7.382;2022-10-13T13:30:27;11.52;;;11.52;;
73154;SDS011;61364;52.418;7.382;2022-10-13T13:32:53;11.44;;;11.44;;
73154;SDS011;61364;52.418;7.382;2022-10-13T13:35:18;12.78;;;12.78;;
73154;SDS011;61364;52.418;7.382;2022-10-13T13:37:47;11.36;;;11.36;;
73154;SDS011;61364;52.418;7.382;2022-10-13T13:40:16;12.08;;;12.08;;
73154;SDS011;61364;52.418;7.382;2022-10-13T13:42:42;14.42;;;14.42;;
73154;SDS011;61364;52.418;7.382;2022-10-13T13:45:18;16.56;;;16.56;;
73154;SDS011;61364;52.418;7.382;2022-10-13T13:47:44;18.96;;;18.96;;
73154;SDS011;61364;52.418;7.382;2022-10-13T13:50:19;18.45;;;18.45;;
73154;SDS011;61364;52.418;7.382;2022-10-13T13:52:47;16.67;;;16.67;;
73154;SDS011;61364;52.418;7.382;2022-10-13T13:55:12;15.88;;;15.88;;
73154;SDS011;61364;52.418;7.382;2022-10-13T13:57:38;15.07;;;15.07;;
73154;SDS011;61364;52.418;7.382;2022-10-13T14:00:04;14.09;;;14.09;;
73154;SDS011;61364;52.418;7.382;2022-10-13T14:02:30;14.19;;;14.19;;
73154;SDS011;61364;52.418;7.382;2022-10-13T14:04:55;14.02;;;14.02;;
73154;SDS011;61364;52.418;7.382;2022-10-13T14:07:21;13.72;;;13.72;;
73154;SDS011;61364;52.418;7.382;2022-10-13T14:09:46;14.48;;;14.48;;
73154;SDS011;61364;52.418;7.382;2022-10-13T14:12:12;13.86;;;13.86;;
73154;SDS011;61364;52.418;7.382;2022-10-13T14:14:37;14.06;;;14.06;;
73154;SDS011;61364;52.418;7.382;2022-10-13T14:17:03;14.58;;;14.58;;
73154;SDS011;61364;52.418;7.382;2022-10-13T14:19:30;14.66;;;14.62;;
73154;SDS011;61364;52.418;7.382;2022-10-13T14:21:55;14.72;;;14.69;;
73154;SDS011;61364;52.418;7.382;2022-10-13T14:24:21;15.06;;;15.05;;
73154;SDS011;61364;52.418;7.382;2022-10-13T14:26:46;15.67;;;15.67;;
73154;SDS011;61364;52.418;7.382;2022-10-13T14:29:12;14.64;;;14.64;;
73154;SDS011;61364;52.418;7.382;2022-10-13T14:31:38;14.51;;;14.51;;
73154;SDS011;61364;52.418;7.382;2022-10-13T14:34:03;15.17;;;15.17;;
73154;SDS011;61364;52.418;7.382;2022-10-13T14:36:29;15.85;;;15.84;;
73154;SDS011;61364;52.418;7.382;2022-10-13T14:38:54;16.02;;;15.98;;
73154;SDS011;61364;52.418;7.382;2022-10-13T14:41:20;16.52;;;16.52;;
73154;SDS011;61364;52.418;7.382;2022-10-13T14:43:46;18.29;;;18.29;;
73154;SDS011;61364;52.418;7.382;2022-10-13T14:46:12;17.90;;;17.90;;
73154;SDS011;61364;52.418;7.382;2022-10-13T14:48:38;17.69;;;17.69;;
73154;SDS011;61364;52.418;7.382;2022-10-13T14:51:04;16.95;;;16.90;;
73154;SDS011;61364;52.418;7.382;2022-10-13T14:53:40;16.53;;;16.52;;
73154;SDS011;61364;52.418;7.382;2022-10-13T14:56:16;15.81;;;15.81;;
73154;SDS011;61364;52.418;7.382;2022-10-13T14:58:42;17.09;;;17.09;;
73154;SDS011;61364;52.418;7.382;2022-10-13T15:01:08;14.07;;;14.07;;
73154;SDS011;61364;52.418;7.382;2022-10-13T15:03:34;13.67;;;13.67;;
73154;SDS011;61364;52.418;7.382;2022-10-13T15:05:59;14.05;;;14.03;;
73154;SDS011;61364;52.418;7.382;2022-10-13T15:08:25;14.20;;;14.20;;
73154;SDS011;61364;52.418;7.382;2022-10-13T15:10:57;13.76;;;13.75;;
73154;SDS011;61364;52.418;7.382;2022-10-13T15:13:23;15.49;;;15.49;;
73154;SDS011;61364;52.418;7.382;2022-10-13T15:15:48;14.68;;;14.68;;
73154;SDS011;61364;52.418;7.382;2022-10-13T15:18:14;15.07;;;15.07;;
73154;SDS011;61364;52.418;7.382;2022-10-13T15:20:43;17.47;;;17.47;;
73154;SDS011;61364;52.418;7.382;2022-10-13T15:23:09;17.20;;;17.20;;
73154;SDS011;61364;52.418;7.382;2022-10-13T15:25:34;16.52;;;16.52;;
73154;SDS011;61364;52.418;7.382;2022-10-13T15:28:00;16.28;;;16.28;;
73154;SDS011;61364;52.418;7.382;2022-10-13T15:30:25;16.04;;;16.00;;
73154;SDS011;61364;52.418;7.382;2022-10-13T15:32:51;16.62;;;16.57;;
73154;SDS011;61364;52.418;7.382;2022-10-13T15:35:17;15.05;;;15.05;;
73154;SDS011;61364;52.418;7.382;2022-10-13T15:37:42;16.71;;;16.71;;
73154;SDS011;61364;52.418;7.382;2022-10-13T15:40:08;16.52;;;16.52;;
73154;SDS011;61364;52.418;7.382;2022-10-13T15:42:34;16.43;;;16.43;;
73154;SDS011;61364;52.418;7.382;2022-10-13T15:44:59;16.70;;;16.70;;
73154;SDS011;61364;52.418;7.382;2022-10-13T15:47:25;15.23;;;15.23;;
73154;SDS011;61364;52.418;7.382;2022-10-13T15:49:50;15.79;;;15.79;;
73154;SDS011;61364;52.418;7.382;2022-10-13T15:52:16;15.36;;;15.36;;
73154;SDS011;61364;52.418;7.382;2022-10-13T15:54:42;15.67;;;15.67;;
73154;SDS011;61364;52.418;7.382;2022-10-13T15:57:07;15.67;;;15.67;;
73154;SDS011;61364;52.418;7.382;2022-10-13T15:59:32;14.66;;;14.66;;
73154;SDS011;61364;52.418;7.382;2022-10-13T16:01:58;13.34;;;13.34;;